Time;durP1;ratioP1;P1;durP2;ratioP2;P2;SDS_P1;SDS_P2;PMS_P1;PMS_P2;Temp;Humidity;BMP_temperature;BMP_pressure;BME280_temperature;BME280_humidity;BME280_pressure;Samples;Min_cycle;Max_cycle;Signal;HPM_P1;HPM_P2
2022/07/18 00:01:56;;;;;;;0.55;0.40;;;19.30;99.90;;;;;;5047559;28;20572;-69
2022/07/18 00:04:22;;;;;;;0.17;0.17;;;19.30;99.90;;;;;;5062932;28;20049;-69
2022/07/18 00:06:48;;;;;;;0.10;0.10;;;19.30;99.90;;;;;;5068980;28;20048;-69
2022/07/18 00:09:14;;;;;;;0.20;0.20;;;19.30;99.90;;;;;;5054118;28;20075;-69
2022/07/18 00:11:39;;;;;;;1.38;1.00;;;19.30;99.90;;;;;;5061588;28;20064;-69
2022/07/18 00:14:05;;;;;;;0.38;0.35;;;19.30;99.90;;;;;;5060093;28;20510;-69
2022/07/18 00:16:31;;;;;;;0.82;0.50;;;19.20;99.90;;;;;;5060183;28;20114;-69
2022/07/18 00:18:58;;;;;;;0.00;0.00;;;19.20;99.90;;;;;;5067991;28;20056;-69
2022/07/18 00:21:24;;;;;;;0.00;0.00;;;19.20;99.90;;;;;;5048547;28;20051;-69
2022/07/18 00:23:50;;;;;;;0.00;0.00;;;19.10;99.90;;;;;;5057506;28;20415;-69
2022/07/18 00:26:15;;;;;;;0.47;0.25;;;19.10;99.90;;;;;;5067199;28;20037;-69
2022/07/18 00:28:41;;;;;;;0.43;0.25;;;19.10;99.90;;;;;;5071021;28;20055;-69
2022/07/18 00:31:06;;;;;;;0.00;0.00;;;19.10;99.90;;;;;;5083856;28;20046;-69
2022/07/18 00:33:32;;;;;;;0.40;0.40;;;19.10;99.90;;;;;;5070220;28;20052;-69
2022/07/18 00:35:58;;;;;;;0.38;0.38;;;19.10;99.90;;;;;;5072132;28;20032;-69
2022/07/18 00:38:24;;;;;;;0.10;0.10;;;19.10;99.90;;;;;;5062029;28;20102;-69
2022/07/18 00:40:50;;;;;;;1.77;0.30;;;19.10;99.90;;;;;;5069007;28;20049;-69
2022/07/18 00:43:16;;;;;;;0.77;0.77;;;19.10;99.90;;;;;;5064251;28;20040;-69
2022/07/18 00:45:49;;;;;;;0.40;0.40;;;19.00;99.90;;;;;;5076892;28;20051;-69
2022/07/18 00:48:14;;;;;;;0.22;0.13;;;18.90;99.90;;;;;;5050987;28;20048;-69
2022/07/18 00:50:41;;;;;;;0.00;0.00;;;18.80;99.90;;;;;;5051663;28;20105;-69
2022/07/18 00:53:07;;;;;;;0.08;0.08;;;18.80;99.90;;;;;;5058742;28;20036;-69
2022/07/18 00:55:34;;;;;;;0.03;0.03;;;18.80;99.90;;;;;;5064897;28;20099;-69
2022/07/18 00:57:59;;;;;;;0.38;0.38;;;18.80;99.90;;;;;;5064744;28;20067;-69
2022/07/18 01:03:10;;;;;;;0.70;0.35;;;18.80;99.90;;;;;;5078715;28;20087;-69
2022/07/18 01:05:35;;;;;;;0.00;0.00;;;18.90;99.90;;;;;;5064687;28;20057;-69
2022/07/18 01:08:02;;;;;;;10.05;1.02;;;18.70;99.90;;;;;;5063644;28;20032;-69
2022/07/18 01:10:27;;;;;;;0.30;0.30;;;18.70;99.90;;;;;;5075743;28;20048;-69
2022/07/18 01:12:53;;;;;;;0.13;0.13;;;18.70;99.90;;;;;;5062839;28;20415;-69
2022/07/18 01:15:19;;;;;;;0.17;0.17;;;18.80;99.90;;;;;;5072790;28;20491;-69
2022/07/18 01:17:44;;;;;;;0.77;0.35;;;18.70;99.90;;;;;;5082643;28;20395;-69
2022/07/18 01:20:10;;;;;;;0.10;0.10;;;18.70;99.90;;;;;;5065077;28;20179;-69
2022/07/18 01:22:36;;;;;;;0.00;0.00;;;18.80;99.90;;;;;;5075937;28;20056;-69
2022/07/18 01:25:02;;;;;;;0.22;0.22;;;18.70;99.90;;;;;;5058236;28;20037;-69
2022/07/18 01:27:27;;;;;;;0.10;0.10;;;18.70;99.90;;;;;;5051134;28;20098;-69
2022/07/18 01:29:53;;;;;;;0.20;0.20;;;18.70;99.90;;;;;;5058583;28;20048;-69
2022/07/18 01:32:20;;;;;;;1.05;0.43;;;18.70;99.90;;;;;;5077974;28;20774;-69
2022/07/18 01:34:47;;;;;;;0.00;0.00;;;18.70;99.90;;;;;;5041279;28;20060;-69
2022/07/18 01:37:15;;;;;;;0.20;0.20;;;18.70;99.90;;;;;;5045060;28;20051;-69
2022/07/18 01:39:41;;;;;;;0.20;0.20;;;18.60;99.90;;;;;;5063805;28;20048;-69
2022/07/18 01:42:09;;;;;;;0.38;0.38;;;18.60;99.90;;;;;;5040975;28;20515;-69
2022/07/18 01:44:36;;;;;;;0.98;0.40;;;18.60;99.90;;;;;;5071130;28;20051;-69
2022/07/18 01:47:04;;;;;;;0.30;0.30;;;18.40;99.90;;;;;;5064578;28;20040;-69
2022/07/18 01:49:29;;;;;;;0.00;0.00;;;18.40;99.90;;;;;;5069806;28;20450;-69
2022/07/18 01:51:56;;;;;;;0.38;0.38;;;18.30;99.90;;;;;;5062618;28;20051;-69
2022/07/18 01:54:23;;;;;;;0.43;0.43;;;18.40;99.90;;;;;;5072896;28;20639;-69
2022/07/18 01:56:49;;;;;;;0.35;0.35;;;18.40;99.90;;;;;;5049902;28;20761;-69
2022/07/18 01:59:15;;;;;;;0.05;0.03;;;18.30;99.90;;;;;;5051854;28;20041;-69
2022/07/18 02:01:40;;;;;;;9.52;0.57;;;18.20;99.90;;;;;;5053143;28;20083;-69
2022/07/18 02:04:06;;;;;;;0.00;0.00;;;18.20;99.90;;;;;;5065731;28;20053;-69
2022/07/18 02:06:31;;;;;;;0.05;0.05;;;18.10;99.90;;;;;;5059372;28;20053;-69
2022/07/18 02:08:57;;;;;;;2.83;0.55;;;18.10;99.90;;;;;;5062025;28;20128;-69
2022/07/18 02:11:23;;;;;;;0.08;0.08;;;18.10;99.90;;;;;;5069350;28;20040;-69
2022/07/18 02:13:49;;;;;;;0.38;0.38;;;18.00;99.90;;;;;;5072363;28;20044;-69
2022/07/18 02:16:14;;;;;;;0.65;0.63;;;17.90;99.90;;;;;;5073667;28;20074;-69
2022/07/18 02:18:40;;;;;;;1.17;0.50;;;18.00;99.90;;;;;;5069289;28;20101;-69
2022/07/18 02:21:07;;;;;;;0.00;0.00;;;18.10;99.90;;;;;;5040323;28;20131;-69
2022/07/18 02:23:33;;;;;;;0.13;0.13;;;18.10;99.90;;;;;;5077576;28;20080;-69
2022/07/18 02:25:58;;;;;;;1.02;1.02;;;18.10;99.90;;;;;;5072242;28;20036;-69
2022/07/18 02:28:24;;;;;;;0.10;0.10;;;18.10;99.90;;;;;;5080300;28;20052;-69
2022/07/18 02:30:50;;;;;;;0.25;0.20;;;18.20;99.90;;;;;;5075068;28;20044;-69
2022/07/18 02:33:16;;;;;;;0.10;0.10;;;18.10;99.90;;;;;;5075138;28;20062;-69
2022/07/18 02:35:42;;;;;;;0.35;0.28;;;18.10;99.90;;;;;;5054130;28;20033;-69
2022/07/18 02:38:08;;;;;;;0.90;0.50;;;18.10;99.90;;;;;;5051987;28;20586;-69
2022/07/18 02:40:34;;;;;;;0.40;0.40;;;18.00;99.90;;;;;;5075657;28;20128;-69
2022/07/18 02:43:00;;;;;;;1.35;0.57;;;18.10;99.90;;;;;;5051730;28;20110;-69
2022/07/18 02:45:26;;;;;;;0.35;0.35;;;17.90;99.90;;;;;;5036575;28;20480;-68
2022/07/18 02:47:52;;;;;;;0.15;0.13;;;17.90;99.90;;;;;;5080335;28;20483;-69
2022/07/18 02:50:18;;;;;;;0.45;0.45;;;17.90;99.90;;;;;;5067009;28;20118;-68
2022/07/18 02:52:44;;;;;;;0.35;0.35;;;17.90;99.90;;;;;;5073533;28;20040;-69
2022/07/18 02:55:11;;;;;;;1.83;0.73;;;17.90;99.90;;;;;;5055048;28;20119;-69
2022/07/18 02:57:37;;;;;;;0.00;0.00;;;17.90;99.90;;;;;;5055207;28;20064;-69
2022/07/18 03:00:08;;;;;;;0.90;0.60;;;17.90;99.90;;;;;;5056365;28;20464;-69
2022/07/18 03:02:34;;;;;;;0.10;0.10;;;17.90;99.90;;;;;;5045092;28;20766;-69
2022/07/18 03:05:00;;;;;;;1.13;0.73;;;17.90;99.90;;;;;;5049978;28;20053;-69
2022/07/18 03:07:25;;;;;;;0.10;0.10;;;17.90;99.90;;;;;;5057754;28;20047;-69
2022/07/18 03:09:51;;;;;;;2.30;0.38;;;18.00;99.90;;;;;;5055884;28;20048;-69
2022/07/18 03:12:17;;;;;;;0.60;0.60;;;17.90;99.90;;;;;;5042904;28;20119;-69
2022/07/18 03:14:43;;;;;;;0.60;0.60;;;17.80;99.90;;;;;;5066371;28;20145;-69
2022/07/18 03:17:09;;;;;;;0.05;0.05;;;17.80;99.90;;;;;;5075017;28;20503;-69
2022/07/18 03:19:35;;;;;;;0.10;0.10;;;17.80;99.90;;;;;;5063134;28;20040;-69
2022/07/18 03:22:01;;;;;;;0.45;0.43;;;17.90;99.90;;;;;;5059745;28;20044;-69
2022/07/18 03:24:27;;;;;;;2.00;1.20;;;17.70;99.90;;;;;;5067865;28;20110;-69
2022/07/18 03:26:52;;;;;;;0.00;0.00;;;17.70;99.90;;;;;;5074670;28;20583;-68
2022/07/18 03:29:18;;;;;;;1.45;1.25;;;17.60;99.90;;;;;;5052122;28;20107;-69
2022/07/18 03:31:44;;;;;;;0.32;0.32;;;17.60;99.90;;;;;;5061068;28;20048;-69
2022/07/18 03:34:09;;;;;;;0.20;0.17;;;17.60;99.90;;;;;;5055140;28;20047;-69
2022/07/18 03:36:35;;;;;;;0.43;0.43;;;17.60;99.90;;;;;;5060647;28;20065;-69
2022/07/18 03:39:01;;;;;;;0.45;0.45;;;17.60;99.90;;;;;;5042026;28;20052;-69
2022/07/18 03:41:27;;;;;;;0.10;0.10;;;17.60;99.90;;;;;;5064318;28;20471;-69
2022/07/18 03:43:52;;;;;;;0.40;0.40;;;17.60;99.90;;;;;;5073549;28;20131;-68
2022/07/18 03:46:18;;;;;;;0.10;0.10;;;17.60;99.90;;;;;;5056492;28;20049;-69
2022/07/18 03:48:44;;;;;;;1.95;0.77;;;17.70;99.90;;;;;;5056713;28;20396;-68
2022/07/18 03:51:09;;;;;;;0.43;0.38;;;17.60;99.90;;;;;;5032680;28;20045;-69
2022/07/18 03:53:35;;;;;;;0.00;0.00;;;17.50;99.90;;;;;;5058861;28;20464;-68
2022/07/18 03:56:00;;;;;;;0.00;0.00;;;17.60;99.90;;;;;;5049794;28;20047;-69
2022/07/18 03:58:26;;;;;;;0.65;0.65;;;17.60;99.90;;;;;;5053168;28;20131;-68
2022/07/18 04:00:52;;;;;;;0.20;0.20;;;17.60;99.90;;;;;;5048602;28;20033;-69
2022/07/18 04:03:18;;;;;;;0.10;0.10;;;17.50;99.90;;;;;;5069125;28;20109;-69
2022/07/18 04:05:44;;;;;;;0.32;0.32;;;17.60;99.90;;;;;;5059981;28;20499;-69
2022/07/18 04:08:10;;;;;;;0.35;0.35;;;17.70;99.90;;;;;;5066818;28;20117;-69
2022/07/18 04:10:39;;;;;;;0.30;0.30;;;17.70;99.90;;;;;;5068839;28;20048;-69
2022/07/18 04:13:06;;;;;;;0.20;0.20;;;17.70;99.90;;;;;;5049293;28;20056;-69
2022/07/18 04:15:32;;;;;;;0.05;0.05;;;17.70;99.90;;;;;;5077182;28;20076;-69
2022/07/18 04:17:57;;;;;;;0.35;0.35;;;17.80;99.90;;;;;;5084892;28;20467;-69
2022/07/18 04:20:24;;;;;;;1.90;0.70;;;17.70;99.90;;;;;;5069269;28;20109;-69
2022/07/18 04:22:54;;;;;;;0.47;0.47;;;17.70;99.90;;;;;;5083431;28;20093;-69
2022/07/18 04:25:22;;;;;;;0.15;0.15;;;17.70;99.90;;;;;;5067191;28;20127;-69
2022/07/18 04:27:48;;;;;;;1.38;0.63;;;17.70;99.90;;;;;;5064124;28;20052;-69
2022/07/18 04:30:16;;;;;;;1.55;0.63;;;17.70;99.90;;;;;;5065590;28;20072;-69
2022/07/18 04:32:42;;;;;;;0.43;0.40;;;17.60;99.90;;;;;;5067580;28;20120;-69
2022/07/18 04:35:09;;;;;;;0.43;0.43;;;17.60;99.90;;;;;;5062603;28;20120;-69
2022/07/18 04:37:35;;;;;;;0.30;0.30;;;17.60;99.90;;;;;;5060925;28;20089;-69
2022/07/18 04:40:01;;;;;;;0.00;0.00;;;17.60;99.90;;;;;;5086312;28;20041;-69
2022/07/18 04:42:27;;;;;;;0.10;0.10;;;17.60;99.90;;;;;;5064465;28;20036;-69
2022/07/18 04:44:53;;;;;;;0.28;0.28;;;17.60;99.90;;;;;;5069343;28;20057;-69
2022/07/18 04:47:19;;;;;;;0.25;0.25;;;17.50;99.90;;;;;;5042611;28;20040;-69
2022/07/18 04:49:44;;;;;;;0.63;0.47;;;17.70;99.90;;;;;;5072785;28;20044;-69
2022/07/18 04:52:10;;;;;;;0.08;0.08;;;17.70;99.90;;;;;;5046026;28;20048;-69
2022/07/18 04:54:35;;;;;;;0.35;0.35;;;17.80;99.90;;;;;;5054154;28;20683;-69
2022/07/18 04:57:01;;;;;;;0.43;0.43;;;17.80;99.90;;;;;;5080462;28;20383;-69
2022/07/18 04:59:26;;;;;;;2.28;0.25;;;17.80;99.90;;;;;;5053878;28;20059;-69
2022/07/18 05:01:52;;;;;;;0.43;0.43;;;17.80;99.90;;;;;;5061446;28;20044;-69
2022/07/18 05:04:18;;;;;;;1.40;0.93;;;17.80;99.90;;;;;;5053857;28;20048;-68
2022/07/18 05:06:44;;;;;;;0.00;0.00;;;17.80;99.90;;;;;;5065130;28;20136;-69
2022/07/18 05:09:09;;;;;;;0.25;0.25;;;17.80;99.90;;;;;;5043376;28;20179;-69
2022/07/18 05:11:35;;;;;;;0.95;0.57;;;17.80;99.90;;;;;;5054967;28;20537;-69
2022/07/18 05:14:01;;;;;;;0.88;0.85;;;17.90;99.90;;;;;;5063841;28;20462;-69
2022/07/18 05:16:26;;;;;;;0.08;0.08;;;17.90;99.90;;;;;;5086347;28;20040;-69
2022/07/18 05:18:52;;;;;;;1.33;0.95;;;18.00;99.90;;;;;;5078280;28;20498;-69
2022/07/18 05:21:18;;;;;;;1.67;1.58;;;18.00;99.90;;;;;;5058919;28;20090;-69
2022/07/18 05:23:45;;;;;;;3.20;0.95;;;18.00;99.90;;;;;;5071115;28;20064;-69
2022/07/18 05:26:11;;;;;;;1.17;0.73;;;18.00;99.90;;;;;;5059567;28;20511;-69
2022/07/18 05:28:37;;;;;;;1.73;0.52;;;18.00;99.90;;;;;;5054143;28;20075;-69
2022/07/18 05:31:03;;;;;;;0.30;0.30;;;18.10;99.90;;;;;;5077573;28;20651;-69
2022/07/18 05:33:29;;;;;;;0.13;0.13;;;18.00;99.90;;;;;;5034811;28;20117;-69
2022/07/18 05:35:54;;;;;;;0.03;0.03;;;18.10;99.90;;;;;;5069194;28;20085;-70
2022/07/18 05:38:20;;;;;;;0.20;0.20;;;18.10;99.90;;;;;;5064608;28;20044;-69
2022/07/18 05:40:46;;;;;;;0.40;0.40;;;18.20;99.90;;;;;;5057851;28;20415;-69
2022/07/18 05:43:11;;;;;;;0.20;0.20;;;18.10;99.90;;;;;;5065303;28;20044;-69
2022/07/18 05:45:37;;;;;;;0.38;0.38;;;18.20;99.90;;;;;;5077799;28;20044;-69
2022/07/18 05:48:03;;;;;;;0.00;0.00;;;18.20;99.90;;;;;;5070599;28;20132;-69
2022/07/18 05:50:29;;;;;;;0.30;0.30;;;18.30;99.90;;;;;;5082955;28;20044;-69
2022/07/18 05:52:54;;;;;;;0.20;0.20;;;18.30;99.90;;;;;;5063589;28;20039;-69
2022/07/18 05:55:20;;;;;;;1.55;0.77;;;18.40;99.90;;;;;;5068517;28;20418;-69
2022/07/18 05:57:46;;;;;;;0.00;0.00;;;18.50;99.90;;;;;;5070668;28;20131;-69
2022/07/18 06:00:12;;;;;;;0.08;0.08;;;18.50;99.90;;;;;;5066197;28;20052;-69
2022/07/18 06:02:38;;;;;;;0.00;0.00;;;18.60;99.90;;;;;;5047755;28;20048;-69
2022/07/18 06:05:06;;;;;;;0.08;0.08;;;18.60;99.90;;;;;;5065737;28;20060;-69
2022/07/18 06:07:31;;;;;;;0.10;0.10;;;18.60;99.90;;;;;;5061889;28;20045;-69
2022/07/18 06:09:57;;;;;;;0.20;0.20;;;18.70;99.90;;;;;;5072331;28;20451;-69
2022/07/18 06:12:22;;;;;;;0.10;0.10;;;18.70;99.90;;;;;;5065750;28;20037;-69
2022/07/18 06:14:48;;;;;;;1.13;0.57;;;18.80;99.90;;;;;;5036944;28;20482;-69
2022/07/18 06:17:14;;;;;;;7.53;1.02;;;18.80;99.90;;;;;;5070923;28;20265;-69
2022/07/18 06:19:41;;;;;;;0.00;0.00;;;18.80;99.90;;;;;;5061556;28;20091;-69
2022/07/18 06:22:08;;;;;;;0.00;0.00;;;18.90;99.90;;;;;;5048113;28;20677;-69
2022/07/18 06:24:33;;;;;;;0.55;0.55;;;18.90;99.90;;;;;;5063156;28;20120;-69
2022/07/18 06:26:59;;;;;;;0.03;0.03;;;18.90;99.90;;;;;;5052670;28;20131;-69
2022/07/18 06:29:25;;;;;;;0.10;0.10;;;19.00;99.90;;;;;;5077226;28;20106;-69
2022/07/18 06:31:50;;;;;;;0.10;0.10;;;19.00;99.90;;;;;;5034257;28;20055;-69
2022/07/18 06:34:16;;;;;;;0.10;0.10;;;19.10;99.90;;;;;;5068992;28;20083;-69
2022/07/18 06:36:41;;;;;;;0.10;0.10;;;19.20;99.90;;;;;;5062175;28;20071;-69
2022/07/18 06:39:10;;;;;;;0.20;0.20;;;19.20;99.90;;;;;;5076594;28;20048;-69
2022/07/18 06:41:38;;;;;;;0.57;0.52;;;19.30;99.90;;;;;;5055942;28;20036;-69
2022/07/18 06:44:04;;;;;;;0.10;0.10;;;19.40;99.90;;;;;;5065022;28;20032;-69
2022/07/18 06:46:29;;;;;;;0.00;0.00;;;19.40;99.90;;;;;;5064017;28;20098;-69
2022/07/18 06:48:55;;;;;;;0.10;0.10;;;19.40;99.90;;;;;;5063590;28;20491;-70
2022/07/18 06:51:21;;;;;;;0.00;0.00;;;19.50;99.90;;;;;;5041909;28;20093;-70
2022/07/18 06:53:46;;;;;;;0.10;0.10;;;19.50;99.90;;;;;;5063671;28;20123;-70
2022/07/18 06:56:12;;;;;;;0.10;0.10;;;19.60;99.90;;;;;;5073803;28;20047;-69
2022/07/18 06:58:37;;;;;;;0.03;0.03;;;19.60;99.90;;;;;;5085508;28;20070;-69
2022/07/18 07:01:06;;;;;;;0.00;0.00;;;19.70;99.90;;;;;;5064350;28;20033;-69
2022/07/18 07:03:32;;;;;;;0.00;0.00;;;19.70;99.90;;;;;;5061402;28;20095;-70
2022/07/18 07:05:57;;;;;;;0.10;0.10;;;19.80;99.90;;;;;;5060792;28;20453;-69
2022/07/18 07:08:23;;;;;;;0.00;0.00;;;19.80;99.90;;;;;;5064806;28;20068;-70
2022/07/18 07:10:48;;;;;;;0.13;0.13;;;19.80;99.90;;;;;;5056698;28;20048;-69
2022/07/18 07:13:14;;;;;;;0.10;0.10;;;19.90;99.90;;;;;;5061770;28;20055;-70
2022/07/18 07:15:40;;;;;;;0.00;0.00;;;19.90;99.90;;;;;;5061036;28;20071;-69
2022/07/18 07:18:06;;;;;;;0.20;0.20;;;19.80;99.90;;;;;;5059767;28;20454;-70
2022/07/18 07:20:31;;;;;;;0.52;0.22;;;19.90;99.90;;;;;;5058893;28;20051;-70
2022/07/18 07:22:57;;;;;;;0.00;0.00;;;20.00;99.90;;;;;;5057861;28;20140;-70
2022/07/18 07:25:25;;;;;;;0.10;0.10;;;20.10;99.90;;;;;;5073285;28;20388;-70
2022/07/18 07:27:52;;;;;;;1.00;1.00;;;20.20;99.90;;;;;;5076641;28;20602;-70
2022/07/18 07:30:18;;;;;;;0.28;0.28;;;20.30;99.90;;;;;;5061364;28;20072;-69
2022/07/18 07:32:45;;;;;;;0.63;0.47;;;20.40;99.90;;;;;;5066323;28;20543;-70
2022/07/18 07:35:13;;;;;;;0.00;0.00;;;20.30;99.90;;;;;;5073305;28;20045;-70
2022/07/18 07:37:47;;;;;;;0.03;0.03;;;20.40;99.90;;;;;;5070509;28;20047;-70
2022/07/18 07:40:13;;;;;;;0.20;0.20;;;20.50;99.90;;;;;;5047408;28;20053;-70
2022/07/18 07:42:39;;;;;;;0.08;0.08;;;20.50;99.90;;;;;;5074351;28;20073;-70
2022/07/18 07:45:05;;;;;;;0.00;0.00;;;20.60;99.90;;;;;;5050528;28;20674;-70
2022/07/18 07:47:31;;;;;;;0.00;0.00;;;20.70;99.90;;;;;;5061796;28;20046;-70
2022/07/18 07:49:58;;;;;;;0.10;0.10;;;20.80;99.90;;;;;;5063987;28;20718;-70
2022/07/18 07:52:24;;;;;;;0.43;0.43;;;20.90;99.90;;;;;;5073974;28;20076;-70
2022/07/18 07:54:50;;;;;;;0.00;0.00;;;21.00;99.90;;;;;;5048774;28;20084;-70
2022/07/18 07:57:16;;;;;;;0.20;0.10;;;21.10;99.90;;;;;;5059261;28;20056;-70
2022/07/18 07:59:41;;;;;;;0.47;0.32;;;21.20;99.90;;;;;;5052942;28;20053;-71
2022/07/18 08:02:07;;;;;;;0.10;0.10;;;21.30;99.90;;;;;;5055016;28;20118;-70
2022/07/18 08:04:33;;;;;;;0.10;0.10;;;21.40;99.90;;;;;;5071255;28;20112;-70
2022/07/18 08:06:58;;;;;;;0.32;0.32;;;21.50;99.90;;;;;;5066643;28;20494;-70
2022/07/18 08:09:25;;;;;;;0.20;0.20;;;21.60;99.90;;;;;;5049688;28;20056;-70
2022/07/18 08:11:50;;;;;;;0.00;0.00;;;21.70;99.90;;;;;;5069424;28;20049;-70
2022/07/18 08:14:16;;;;;;;0.00;0.00;;;21.80;99.90;;;;;;5055249;28;20047;-72
2022/07/18 08:16:42;;;;;;;0.00;0.00;;;22.00;99.90;;;;;;5082584;28;20083;-69
2022/07/18 08:19:07;;;;;;;0.00;0.00;;;22.10;99.90;;;;;;5046420;28;20052;-70
2022/07/18 08:21:33;;;;;;;0.00;0.00;;;22.30;99.90;;;;;;5047710;28;20049;-70
2022/07/18 08:23:59;;;;;;;0.00;0.00;;;22.40;99.90;;;;;;5059675;28;20044;-70
2022/07/18 08:26:25;;;;;;;0.10;0.10;;;22.50;99.90;;;;;;5087400;28;20055;-69
2022/07/18 08:28:51;;;;;;;0.98;0.20;;;22.50;99.90;;;;;;5074706;28;20055;-69
2022/07/18 08:31:18;;;;;;;0.20;0.10;;;22.50;99.90;;;;;;5067474;28;20458;-69
2022/07/18 08:33:44;;;;;;;0.65;0.65;;;22.60;99.90;;;;;;5036458;28;20166;-70
2022/07/18 08:36:10;;;;;;;0.05;0.05;;;22.60;99.90;;;;;;5076284;28;20087;-69
2022/07/18 08:38:35;;;;;;;0.00;0.00;;;22.70;99.90;;;;;;5064596;28;21518;-70
2022/07/18 08:41:02;;;;;;;0.25;0.25;;;22.70;99.90;;;;;;5060860;28;20047;-70
2022/07/18 08:43:28;;;;;;;0.00;0.00;;;22.80;99.90;;;;;;5064097;28;20523;-69
2022/07/18 08:46:01;;;;;;;0.30;0.22;;;22.90;99.90;;;;;;5057999;28;20045;-69
2022/07/18 08:48:27;;;;;;;0.10;0.10;;;23.00;99.90;;;;;;5080770;28;20110;-69
2022/07/18 08:50:53;;;;;;;0.20;0.20;;;23.00;99.90;;;;;;5069882;28;20539;-69
2022/07/18 08:53:19;;;;;;;0.05;0.05;;;23.10;99.90;;;;;;5071122;28;20119;-70
2022/07/18 08:55:46;;;;;;;0.00;0.00;;;23.10;99.90;;;;;;5072420;28;20044;-70
2022/07/18 08:58:14;;;;;;;0.65;0.57;;;23.10;99.90;;;;;;5071587;28;20147;-69
2022/07/18 09:00:40;;;;;;;0.30;0.30;;;23.20;99.90;;;;;;5069981;28;20059;-70
2022/07/18 09:03:06;;;;;;;0.47;0.47;;;23.30;99.90;;;;;;5049784;28;20775;-69
2022/07/18 09:05:33;;;;;;;3.92;0.43;;;23.40;99.90;;;;;;5067914;28;20048;-70
2022/07/18 09:08:17;;;;;;;0.43;0.43;;;23.50;99.90;;;;;;5062906;28;20048;-69
2022/07/18 09:10:53;;;;;;;0.20;0.20;;;23.50;99.90;;;;;;5075811;28;20091;-70
2022/07/18 09:13:24;;;;;;;0.00;0.00;;;23.60;99.90;;;;;;5086413;28;20064;-70
2022/07/18 09:16:22;;;;;;;0.55;0.55;;;23.70;99.90;;;;;;5072097;28;20045;-69
2022/07/18 09:18:48;;;;;;;0.00;0.00;;;23.80;99.90;;;;;;5021194;28;20057;-70
2022/07/18 09:21:20;;;;;;;0.00;0.00;;;23.90;99.90;;;;;;5066922;28;20080;-70
2022/07/18 09:23:54;;;;;;;2.85;0.52;;;24.00;99.90;;;;;;5059988;28;20056;-70
2022/07/18 09:26:40;;;;;;;0.00;0.00;;;24.00;99.90;;;;;;5053455;28;20049;-70
2022/07/18 09:29:06;;;;;;;0.32;0.32;;;24.10;99.90;;;;;;5077655;28;20041;-70
2022/07/18 09:31:32;;;;;;;0.22;0.20;;;24.10;99.90;;;;;;5063575;28;20037;-70
2022/07/18 09:34:00;;;;;;;0.35;0.30;;;24.30;99.90;;;;;;5072783;28;20047;-70
2022/07/18 09:36:26;;;;;;;0.10;0.10;;;24.30;99.90;;;;;;5051002;28;20111;-70
2022/07/18 09:38:52;;;;;;;0.00;0.00;;;24.40;99.90;;;;;;5065015;28;20036;-70
2022/07/18 09:41:23;;;;;;;0.13;0.13;;;24.50;99.90;;;;;;5056876;28;20049;-70
2022/07/18 09:43:49;;;;;;;0.13;0.13;;;24.50;99.90;;;;;;5057568;28;20048;-69
2022/07/18 09:46:15;;;;;;;0.00;0.00;;;24.60;99.90;;;;;;5052965;28;20147;-70
2022/07/18 09:48:41;;;;;;;0.05;0.05;;;24.70;99.90;;;;;;5061898;28;20147;-70
2022/07/18 09:51:07;;;;;;;0.57;0.20;;;24.90;99.90;;;;;;5047070;28;20041;-69
2022/07/18 09:53:37;;;;;;;0.08;0.08;;;25.20;99.90;;;;;;5059554;28;20411;-69
2022/07/18 09:56:10;;;;;;;1.00;0.52;;;25.50;99.20;;;;;;5032665;28;20044;-69
2022/07/18 09:58:51;;;;;;;0.65;0.52;;;25.70;99.30;;;;;;5073591;28;20130;-69
2022/07/18 10:01:17;;;;;;;0.00;0.00;;;26.00;98.70;;;;;;5056586;28;20248;-70
2022/07/18 10:03:43;;;;;;;0.00;0.00;;;26.10;98.10;;;;;;5069560;28;20113;-69
2022/07/18 10:06:09;;;;;;;0.47;0.47;;;26.30;97.30;;;;;;5072478;28;20052;-70
2022/07/18 10:08:35;;;;;;;0.00;0.00;;;26.40;97.70;;;;;;5077736;28;20436;-70
2022/07/18 10:11:03;;;;;;;0.10;0.10;;;26.60;97.50;;;;;;5051002;28;20970;-70
2022/07/18 10:13:30;;;;;;;0.20;0.10;;;26.70;96.90;;;;;;5079247;28;20044;-70
2022/07/18 10:15:56;;;;;;;0.00;0.00;;;26.90;97.30;;;;;;5067830;28;20123;-70
2022/07/18 10:18:27;;;;;;;0.35;0.35;;;27.00;97.70;;;;;;5072370;28;20127;-70
2022/07/18 10:21:04;;;;;;;0.20;0.20;;;27.10;97.10;;;;;;5067529;28;20067;-70
2022/07/18 10:23:42;;;;;;;0.10;0.10;;;27.10;97.20;;;;;;5063411;28;20487;-70
2022/07/18 10:26:36;;;;;;;0.00;0.00;;;27.00;96.60;;;;;;5060975;28;20048;-70
2022/07/18 10:29:02;;;;;;;0.13;0.13;;;26.90;96.80;;;;;;5044190;28;20408;-69
2022/07/18 10:31:38;;;;;;;0.00;0.00;;;27.00;96.70;;;;;;5070277;28;20044;-69
2022/07/18 10:34:10;;;;;;;0.00;0.00;;;27.00;96.90;;;;;;5042667;28;20140;-69
2022/07/18 10:36:37;;;;;;;0.00;0.00;;;26.90;96.80;;;;;;5082304;28;20521;-69
2022/07/18 10:39:21;;;;;;;0.00;0.00;;;26.90;97.50;;;;;;5070674;28;20183;-68
2022/07/18 10:41:46;;;;;;;0.10;0.10;;;26.90;97.10;;;;;;5072984;28;20056;-68
2022/07/18 10:44:24;;;;;;;0.00;0.00;;;26.90;97.10;;;;;;5040931;28;20056;-68
2022/07/18 10:47:02;;;;;;;0.03;0.03;;;26.90;97.20;;;;;;5057639;28;20043;-69
2022/07/18 10:49:47;;;;;;;1.00;0.85;;;27.00;98.30;;;;;;5085290;28;20139;-68
2022/07/18 10:52:32;;;;;;;0.03;0.03;;;27.20;97.90;;;;;;5078410;28;20048;-69
2022/07/18 10:55:08;;;;;;;0.00;0.00;;;27.20;97.30;;;;;;5051348;28;20129;-68
2022/07/18 10:57:39;;;;;;;0.68;0.35;;;27.30;97.20;;;;;;5082349;28;20446;-68
2022/07/18 11:00:09;;;;;;;0.28;0.25;;;27.20;96.50;;;;;;5067586;28;20067;-69
2022/07/18 11:02:44;;;;;;;0.55;0.47;;;27.10;96.90;;;;;;5055487;28;20056;-68
2022/07/18 11:05:41;;;;;;;0.15;0.15;;;27.00;96.30;;;;;;5068310;28;20040;-69
2022/07/18 11:08:08;;;;;;;0.00;0.00;;;26.80;96.30;;;;;;5049639;28;20084;-68
2022/07/18 11:10:57;;;;;;;0.22;0.13;;;26.60;95.00;;;;;;5081030;28;20654;-69
2022/07/18 11:13:29;;;;;;;0.00;0.00;;;26.60;96.30;;;;;;5069976;28;20040;-69
2022/07/18 11:16:22;;;;;;;0.20;0.20;;;26.60;95.90;;;;;;5073913;28;20051;-69
2022/07/18 11:18:50;;;;;;;0.00;0.00;;;26.50;96.10;;;;;;5070051;28;20055;-69
2022/07/18 11:21:21;;;;;;;0.10;0.10;;;26.40;95.40;;;;;;5062104;28;20064;-69
2022/07/18 11:23:52;;;;;;;0.00;0.00;;;26.30;96.70;;;;;;5074128;28;20045;-69
2022/07/18 11:26:24;;;;;;;0.00;0.00;;;26.40;98.10;;;;;;5061303;28;20041;-69
2022/07/18 11:28:58;;;;;;;0.52;0.40;;;26.50;96.70;;;;;;5069048;28;20094;-69
2022/07/18 11:31:25;;;;;;;0.10;0.10;;;26.50;96.40;;;;;;5077419;28;20054;-69
2022/07/18 11:33:50;;;;;;;0.45;0.45;;;26.50;96.10;;;;;;5049381;28;20100;-69
2022/07/18 11:36:21;;;;;;;0.00;0.00;;;26.50;96.30;;;;;;5053764;28;20097;-68
2022/07/18 11:38:49;;;;;;;0.00;0.00;;;26.50;96.60;;;;;;5048938;28;20127;-69
2022/07/18 11:41:15;;;;;;;0.00;0.00;;;26.50;97.20;;;;;;5049753;28;20468;-69
2022/07/18 11:43:44;;;;;;;0.00;0.00;;;26.60;97.90;;;;;;5071471;28;20131;-69
2022/07/18 11:46:11;;;;;;;0.00;0.00;;;26.70;98.10;;;;;;5082791;28;20681;-69
2022/07/18 11:48:38;;;;;;;0.00;0.00;;;26.80;96.20;;;;;;5067674;28;20442;-69
2022/07/18 11:51:19;;;;;;;0.10;0.10;;;26.80;95.50;;;;;;5075241;28;20048;-69
2022/07/18 11:53:46;;;;;;;0.10;0.10;;;26.80;96.10;;;;;;5054534;28;20546;-69
2022/07/18 11:56:13;;;;;;;0.10;0.10;;;26.80;95.60;;;;;;5050578;28;20041;-68
2022/07/18 11:58:40;;;;;;;0.00;0.00;;;26.80;95.30;;;;;;5069672;28;20047;-68
2022/07/18 12:01:06;;;;;;;0.90;0.43;;;26.70;95.20;;;;;;5055876;28;20049;-69
2022/07/18 12:03:35;;;;;;;0.30;0.30;;;26.80;96.20;;;;;;5035012;28;20060;-69
2022/07/18 12:06:10;;;;;;;0.00;0.00;;;27.10;97.30;;;;;;5054040;28;20101;-69
2022/07/18 12:08:44;;;;;;;0.20;0.20;;;27.20;95.50;;;;;;5079873;28;20137;-69
2022/07/18 12:11:21;;;;;;;0.38;0.38;;;27.40;95.60;;;;;;5073456;28;20448;-69
2022/07/18 12:13:57;;;;;;;0.03;0.03;;;27.70;94.70;;;;;;5058666;28;20136;-69
2022/07/18 12:16:35;;;;;;;0.30;0.30;;;27.90;94.50;;;;;;5064843;28;20040;-69
2022/07/18 12:19:13;;;;;;;0.30;0.30;;;28.10;93.70;;;;;;5047717;28;20476;-69
2022/07/18 12:21:44;;;;;;;0.05;0.05;;;28.10;93.90;;;;;;5072474;28;20036;-69
2022/07/18 12:24:29;;;;;;;0.00;0.00;;;28.20;95.30;;;;;;5078672;28;20502;-69
2022/07/18 12:27:18;;;;;;;0.10;0.10;;;28.10;94.10;;;;;;5077437;28;20419;-69
2022/07/18 12:29:59;;;;;;;0.00;0.00;;;28.00;93.60;;;;;;5079221;28;20045;-69
2022/07/18 12:32:26;;;;;;;0.00;0.00;;;28.00;94.40;;;;;;5074885;28;20057;-69
2022/07/18 12:35:03;;;;;;;0.10;0.10;;;27.70;93.80;;;;;;5080756;28;20181;-68
2022/07/18 12:37:29;;;;;;;0.32;0.32;;;27.50;94.10;;;;;;5088280;28;20051;-69
2022/07/18 12:40:08;;;;;;;0.00;0.00;;;27.40;94.30;;;;;;5082556;28;20036;-68
2022/07/18 12:42:36;;;;;;;0.00;0.00;;;27.30;94.40;;;;;;5075918;28;20045;-69
2022/07/18 12:45:04;;;;;;;0.00;0.00;;;27.40;93.90;;;;;;5061530;28;20082;-69
2022/07/18 12:47:30;;;;;;;4.68;1.02;;;27.60;95.60;;;;;;5092468;28;20048;-69
2022/07/18 12:49:56;;;;;;;0.00;0.00;;;27.60;96.20;;;;;;5084273;28;20073;-69
2022/07/18 12:52:22;;;;;;;0.00;0.00;;;27.80;95.50;;;;;;5053974;28;20040;-69
2022/07/18 12:54:48;;;;;;;0.55;0.32;;;28.30;95.40;;;;;;5075245;28;20056;-69